Airfield :
LOGIN :

Register | Disclaimer

   EN    FR    IT 

 










Legend :    VFR   Marginal VFR   IFR   Intensive IFR   Very Intensive IFR
Visi :
Ceiling :
>= 8 km
>= 3000ft
5 to 8 km
1000 to 3000 ft
1500m to 5 km
500 to 1000 ft
800 to 1500m
200 to 500 ft
< 800m
< 200 ft
Symbols :   Thunderstorms  Fog  Heavy snow  Heavy precipitations  Wind > 20 kt
SIGMETs :     Misc.  Thunderstorms  Icing  Turbulence  Mountain Waves  Volcanic Ashes







- Airport Elevation : 1470 ft
- IATA code : KLU


LOWK - Klagenfurt

CURRENT METAR :
  • 210350Z AUTO VRB02KT 6000 BKN010 01/M00 Q1014

EXPIRED METARs :
  • 210320Z AUTO 32003KT 9999 BKN012 01/00 Q1013
  • 210250Z AUTO 35002KT 8000 FEW009 BKN011 01/00 Q1013
  • 210220Z AUTO 32002KT 9999 FEW009 BKN011 01/00 Q1013
  • 210150Z AUTO 27002KT 9999 FEW009 BKN012 01/00 Q1013
  • 210120Z AUTO 31004KT 9000 FEW009 BKN011 01/00 Q1013

TAF TAF LOWK
Valid from the 21 at 00:00 until the 22 at 00:00 UTC


202315Z 2100/2124 VRB02KT 8000 FEW008 BKN020 TX02/2113Z TN00/2106Z
TEMPO 2100/2110 3000 BR BKN005
PROB30
TEMPO 2102/2108 1200 BCFG BKN002
TEMPO 2120/2124 4000 BR BKN008
No reported NOTAMs for that airfield.



MET'MAP, your aeronautical weather chart ! - Copyright ORBIFLY December 2007 - Disclaimer

ORBIFLY MET'MAP TEAM :

Programming & Development : Alexandra Zaïnal
Concept & Development : Baudouin d'Aumeries
Co-Development & Prog : Marc-Olivier Méhu
Technical & hardware support : Manuel Goepfert

Contact : metmap@orbifly.com




SOURCES & CREDITS :

   NOAA